createdAt,value
2023-05-21T00:00:21.405Z,97612.75
2023-05-21T00:01:53.761Z,97606.06
2023-05-21T00:03:27.176Z,97600.38
2023-05-21T00:04:58.929Z,97607.25
2023-05-21T00:06:31.333Z,97602.59
2023-05-21T00:08:03.018Z,97604.81
2023-05-21T00:09:35.471Z,97599.13
2023-05-21T00:11:07.270Z,97598.31
2023-05-21T00:12:39.027Z,97598.13
2023-05-21T00:14:10.811Z,97598.34
2023-05-21T00:15:42.684Z,97593.06
2023-05-21T00:17:14.347Z,97596.69
2023-05-21T00:18:46.022Z,97592.66
2023-05-21T00:20:17.707Z,97595.69
2023-05-21T00:21:49.604Z,97598.13
2023-05-21T00:23:21.532Z,97593.06
2023-05-21T00:24:53.307Z,97598.13
2023-05-21T00:26:25.246Z,97583.50
2023-05-21T00:28:01.301Z,97587.94
2023-05-21T00:29:32.994Z,97590.59
2023-05-21T00:31:04.587Z,97588.41
2023-05-21T00:32:36.984Z,97583.28
2023-05-21T00:34:08.822Z,97582.66
2023-05-21T00:35:40.697Z,97579.22
2023-05-21T00:37:15.289Z,97588.56
2023-05-21T00:38:46.967Z,97580.69
2023-05-21T00:40:18.896Z,97584.53
2023-05-21T00:41:51.035Z,97581.84
2023-05-21T00:43:26.581Z,97580.22
2023-05-21T00:44:58.369Z,97576.56
2023-05-21T00:46:30.461Z,97577.78
2023-05-21T00:48:02.848Z,97583.25
2023-05-21T00:49:34.568Z,97577.56
2023-05-21T00:51:06.969Z,97574.94
2023-05-21T00:52:42.257Z,97571.47
2023-05-21T00:54:14.526Z,97577.38
2023-05-21T00:55:46.800Z,97577.38
2023-05-21T00:57:22.966Z,97580.59
2023-05-21T00:58:57.182Z,97573.50
2023-05-21T01:00:28.847Z,97576.56
2023-05-21T01:02:05.462Z,97579.38
2023-05-21T01:03:38.647Z,97578.75
2023-05-21T01:05:11.236Z,97581.97
2023-05-21T01:06:42.837Z,97567.97
2023-05-21T01:08:14.970Z,97578.91
2023-05-21T01:09:46.686Z,97575.63
2023-05-21T01:11:19.108Z,97567.34
2023-05-21T01:12:52.674Z,97569.19
2023-05-21T01:14:25.047Z,97564.72
2023-05-21T01:15:58.769Z,97569.00
2023-05-21T01:17:31.787Z,97566.97
2023-05-21T01:19:05.656Z,97571.44
2023-05-21T01:20:37.835Z,97574.28
2023-05-21T01:22:12.478Z,97567.19
2023-05-21T01:23:44.575Z,97571.03
2023-05-21T01:25:16.329Z,97573.28
2023-05-21T01:26:48.237Z,97572.88
2023-05-21T01:28:19.971Z,97576.31
2023-05-21T01:29:51.698Z,97572.28
2023-05-21T01:31:31.300Z,97568.00
2023-05-21T01:33:04.902Z,97570.22
2023-05-21T01:35:06.284Z,97570.66
2023-05-21T01:36:43.775Z,97567.38
2023-05-21T01:38:50.873Z,97565.56
2023-05-21T01:40:47.201Z,97573.69
2023-05-21T01:42:20.962Z,97571.44
2023-05-21T01:43:56.400Z,97567.19
2023-05-21T01:45:31.333Z,97558.84
2023-05-21T01:47:04.884Z,97549.91
2023-05-21T01:48:37.561Z,97556.00
2023-05-21T01:50:10.047Z,97553.56
2023-05-21T01:51:43.228Z,97556.78
2023-05-21T01:53:16.045Z,97554.34
2023-05-21T01:54:50.002Z,97550.09
2023-05-21T01:56:25.908Z,97553.97
2023-05-21T01:58:02.024Z,97554.16
2023-05-21T01:59:35.072Z,97552.69
2023-05-21T02:01:06.821Z,97549.03
2023-05-21T02:02:38.505Z,97549.03
2023-05-21T02:04:10.269Z,97551.81
2023-05-21T02:05:41.966Z,97541.69
2023-05-21T02:07:15.114Z,97550.41
2023-05-21T02:08:48.434Z,97552.66
2023-05-21T02:10:20.262Z,97557.13
2023-05-21T02:11:51.948Z,97555.28
2023-05-21T02:13:26.457Z,97552.44
2023-05-21T02:14:58.718Z,97554.47
2023-05-21T02:16:30.446Z,97553.00
2023-05-21T02:18:02.482Z,97556.22
2023-05-21T02:19:34.462Z,97557.63
2023-05-21T02:21:06.248Z,97551.38
2023-05-21T02:22:43.262Z,97551.00
2023-05-21T02:24:14.929Z,97556.63
2023-05-21T02:25:46.533Z,97555.00
2023-05-21T02:27:18.283Z,97546.69
2023-05-21T02:28:49.956Z,97554.16
2023-05-21T02:30:21.760Z,97550.13
2023-05-21T02:31:53.349Z,97550.50
2023-05-21T02:33:24.948Z,97544.56
2023-05-21T02:34:56.822Z,97555.38
2023-05-21T02:36:28.883Z,97547.50
2023-05-21T02:38:02.962Z,97541.94
2023-05-21T02:39:34.602Z,97538.44
2023-05-21T02:41:06.430Z,97538.66
2023-05-21T02:42:40.255Z,97538.03
2023-05-21T02:44:14.240Z,97540.47
2023-05-21T02:45:46.372Z,97536.41
2023-05-21T02:47:19.624Z,97540.66
2023-05-21T02:48:51.267Z,97534.56
2023-05-21T02:50:23.425Z,97537.00
2023-05-21T02:52:00.489Z,97539.19
2023-05-21T02:53:32.254Z,97534.91
2023-05-21T02:55:04.182Z,97537.38
2023-05-21T02:56:35.791Z,97540.19
2023-05-21T02:58:07.491Z,97540.22
2023-05-21T02:59:39.135Z,97539.84
2023-05-21T03:01:11.071Z,97532.56
2023-05-21T03:02:43.599Z,97540.84
2023-05-21T03:04:17.209Z,97529.63
2023-05-21T03:05:48.888Z,97534.03
2023-05-21T03:07:20.515Z,97537.88
2023-05-21T03:08:52.190Z,97540.28
2023-05-21T03:10:23.802Z,97533.66
2023-05-21T03:11:55.571Z,97531.25
2023-05-21T03:13:27.235Z,97532.66
2023-05-21T03:14:59.739Z,97531.44
2023-05-21T03:16:34.832Z,97528.63
2023-05-21T03:18:06.844Z,97531.47
2023-05-21T03:19:38.460Z,97529.28
2023-05-21T03:21:13.216Z,97527.47
2023-05-21T03:22:46.467Z,97531.69
2023-05-21T03:24:18.733Z,97533.50
2023-05-21T03:25:53.577Z,97531.69
2023-05-21T03:27:27.080Z,97524.63
2023-05-21T03:28:59.750Z,97531.50
2023-05-21T03:30:31.831Z,97535.69
2023-05-21T03:32:37.980Z,97532.41
2023-05-21T03:34:10.942Z,97537.25
2023-05-21T03:35:42.810Z,97537.44
2023-05-21T03:37:14.537Z,97534.75
2023-05-21T03:38:47.435Z,97532.72
2023-05-21T03:40:19.055Z,97534.13
2023-05-21T03:41:50.802Z,97535.13
2023-05-21T03:43:32.439Z,97528.31
2023-05-21T03:45:04.227Z,97537.63
2023-05-21T03:46:45.697Z,97524.28
2023-05-21T03:48:27.027Z,97531.41
2023-05-21T03:49:59.022Z,97526.56
2023-05-21T03:51:31.968Z,97524.34
2023-05-21T03:53:03.937Z,97526.34
2023-05-21T03:54:35.913Z,97529.22
2023-05-21T03:56:10.787Z,97534.34
2023-05-21T03:57:42.810Z,97533.00
2023-05-21T03:59:14.514Z,97534.63
2023-05-21T04:00:47.432Z,97535.44
2023-05-21T04:02:19.154Z,97537.25
2023-05-21T04:03:50.984Z,97537.44
2023-05-21T04:05:22.852Z,97539.88
2023-05-21T04:06:55.350Z,97532.41
2023-05-21T04:08:27.922Z,97541.28
2023-05-21T04:09:59.745Z,97551.22
2023-05-21T04:11:31.436Z,97547.50
2023-05-21T04:13:03.085Z,97542.06
2023-05-21T04:14:36.840Z,97539.28
2023-05-21T04:16:09.522Z,97546.56
2023-05-21T04:17:41.623Z,97551.06
2023-05-21T04:19:13.604Z,97553.72
2023-05-21T04:20:45.241Z,97549.41
2023-05-21T04:22:16.970Z,97555.41
2023-05-21T04:23:48.599Z,97562.13
2023-05-21T04:25:30.414Z,97566.19
2023-05-21T04:27:02.141Z,97561.34
2023-05-21T04:28:36.380Z,97571.69
2023-05-21T04:30:08.532Z,97562.97
2023-05-21T04:31:41.583Z,97566.41
2023-05-21T04:33:17.940Z,97570.69
2023-05-21T04:34:50.108Z,97580.34
2023-05-21T04:36:21.724Z,97571.78
2023-05-21T04:37:54.983Z,97574.34
2023-05-21T04:39:26.732Z,97575.53
2023-05-21T04:40:58.792Z,97581.63
2023-05-21T04:42:30.522Z,97582.84
2023-05-21T04:44:02.454Z,97583.00
2023-05-21T04:45:36.873Z,97587.69
2023-05-21T04:47:08.955Z,97586.06
2023-05-21T04:48:42.276Z,97582.00
2023-05-21T04:50:14.110Z,97590.31
2023-05-21T04:51:46.854Z,97591.31
2023-05-21T04:53:18.494Z,97582.25
2023-05-21T04:54:50.780Z,97595.03
2023-05-21T04:56:22.483Z,97599.78
2023-05-21T04:57:54.131Z,97588.66
2023-05-21T04:59:25.932Z,97594.97
2023-05-21T05:00:57.926Z,97586.38
2023-05-21T05:02:29.619Z,97596.72
2023-05-21T05:04:01.390Z,97600.03
2023-05-21T05:05:33.107Z,97598.03
2023-05-21T05:07:05.073Z,97598.22
2023-05-21T05:08:36.983Z,97594.84
2023-05-21T05:10:09.296Z,97592.44
2023-05-21T05:11:41.004Z,97589.81
2023-05-21T05:13:12.730Z,97594.41
2023-05-21T05:14:44.542Z,97592.69
2023-05-21T05:16:24.699Z,97592.25
2023-05-21T05:17:56.835Z,97595.44
2023-05-21T05:19:28.795Z,97589.16
2023-05-21T05:21:01.390Z,97588.97
2023-05-21T05:22:33.965Z,97586.38
2023-05-21T05:24:06.084Z,97588.06
2023-05-21T05:25:38.692Z,97594.19
2023-05-21T05:27:11.190Z,97588.50
2023-05-21T05:28:43.351Z,97592.41
2023-05-21T05:30:15.210Z,97599.91
2023-05-21T05:31:46.928Z,97596.50
2023-05-21T05:33:20.025Z,97595.50
2023-05-21T05:34:51.775Z,97597.13
2023-05-21T05:36:24.199Z,97580.13
2023-05-21T05:37:57.014Z,97581.00
2023-05-21T05:39:28.763Z,97586.44
2023-05-21T05:41:00.598Z,97581.00
2023-05-21T05:42:32.243Z,97589.47
2023-05-21T05:44:08.428Z,97589.91
2023-05-21T05:45:42.339Z,97586.44
2023-05-21T05:47:18.228Z,97593.53
2023-05-21T05:48:49.936Z,97585.25
2023-05-21T05:50:22.076Z,97584.03
2023-05-21T05:51:54.587Z,97589.66
2023-05-21T05:53:26.608Z,97591.91
2023-05-21T05:54:58.848Z,97594.16
2023-05-21T05:56:30.616Z,97592.72
2023-05-21T05:58:02.295Z,97595.38
2023-05-21T05:59:34.001Z,97584.34
2023-05-21T06:01:06.724Z,97592.50
2023-05-21T06:02:38.509Z,97593.75
2023-05-21T06:04:10.379Z,97595.19
2023-05-21T06:05:42.109Z,97596.84
2023-05-21T06:07:13.746Z,97596.25
2023-05-21T06:08:46.290Z,97597.09
2023-05-21T06:10:18.778Z,97594.03
2023-05-21T06:11:50.611Z,97597.09
2023-05-21T06:13:22.247Z,97606.84
2023-05-21T06:14:54.080Z,97599.16
2023-05-21T06:16:25.873Z,97603.81
2023-05-21T06:17:57.894Z,97605.09
2023-05-21T06:19:29.544Z,97604.88
2023-05-21T06:21:01.598Z,97601.84
2023-05-21T06:22:33.925Z,97607.13
2023-05-21T06:24:06.174Z,97602.88
2023-05-21T06:25:38.511Z,97603.28
2023-05-21T06:27:10.392Z,97594.78
2023-05-21T06:28:42.686Z,97602.13
2023-05-21T06:30:15.418Z,97597.72
2023-05-21T06:31:47.272Z,97603.13
2023-05-21T06:33:19.391Z,97599.78
2023-05-21T06:34:51.210Z,97603.78
2023-05-21T06:36:26.733Z,97596.19
2023-05-21T06:37:58.359Z,97603.81
2023-05-21T06:39:30.007Z,97607.03
2023-05-21T06:41:03.926Z,97604.13
2023-05-21T06:42:51.920Z,97599.59
2023-05-21T06:44:26.448Z,97600.31
2023-05-21T06:46:08.973Z,97605.94
2023-05-21T06:47:43.940Z,97604.97
2023-05-21T06:49:16.265Z,97600.28
2023-05-21T06:50:48.408Z,97598.72
2023-05-21T06:52:20.164Z,97595.47
2023-05-21T06:53:52.294Z,97597.53
2023-05-21T06:55:24.004Z,97591.19
2023-05-21T06:57:16.569Z,97594.47
2023-05-21T06:58:48.878Z,97597.34
2023-05-21T07:00:21.381Z,97599.81
2023-05-21T07:01:53.393Z,97593.22
2023-05-21T07:03:25.951Z,97594.03
2023-05-21T07:04:57.668Z,97599.69
2023-05-21T07:06:30.219Z,97592.41
2023-05-21T07:08:02.215Z,97595.28
2023-05-21T07:09:34.390Z,97593.03
2023-05-21T07:11:06.129Z,97590.00
2023-05-21T07:12:37.855Z,97593.09
2023-05-21T07:14:09.974Z,97590.38
2023-05-21T07:15:42.629Z,97596.25
2023-05-21T07:17:14.239Z,97594.25
2023-05-21T07:18:46.806Z,97597.06
2023-05-21T07:20:18.515Z,97596.28
2023-05-21T07:21:53.121Z,97591.00
2023-05-21T07:23:24.958Z,97599.59
2023-05-21T07:24:56.720Z,97594.13
2023-05-21T07:26:28.581Z,97592.69
2023-05-21T07:28:00.961Z,97598.47
2023-05-21T07:29:35.758Z,97599.69
2023-05-21T07:31:08.452Z,97593.06
2023-05-21T07:32:45.242Z,97585.59
2023-05-21T07:34:17.027Z,97589.25
2023-05-21T07:35:48.955Z,97588.03
2023-05-21T07:37:21.382Z,97595.38
2023-05-21T07:38:53.134Z,97587.44
2023-05-21T07:40:24.871Z,97582.66
2023-05-21T07:41:56.517Z,97587.59
2023-05-21T07:43:28.205Z,97583.59
2023-05-21T07:45:02.193Z,97583.00
2023-05-21T07:46:37.345Z,97576.16
2023-05-21T07:48:09.422Z,97587.50
2023-05-21T07:49:49.761Z,97578.38
2023-05-21T07:51:21.814Z,97584.59
2023-05-21T07:52:53.457Z,97594.44
2023-05-21T07:54:26.367Z,97585.16
2023-05-21T07:55:59.690Z,97586.13
2023-05-21T07:57:34.121Z,97590.81
2023-05-21T07:59:08.233Z,97592.34
2023-05-21T08:00:47.024Z,97586.22
2023-05-21T08:02:18.854Z,97588.44
2023-05-21T08:03:51.460Z,97588.75
2023-05-21T08:05:24.394Z,97583.78
2023-05-21T08:06:56.534Z,97581.78
2023-05-21T08:08:28.213Z,97583.28
2023-05-21T08:10:02.824Z,97577.38
2023-05-21T08:11:35.010Z,97578.78
2023-05-21T08:13:06.764Z,97570.91
2023-05-21T08:14:38.548Z,97580.78
2023-05-21T08:16:11.412Z,97579.72
2023-05-21T08:17:43.438Z,97578.13
2023-05-21T08:19:15.409Z,97571.16
2023-05-21T08:20:48.348Z,97572.03
2023-05-21T08:22:21.703Z,97570.88
2023-05-21T08:23:54.305Z,97575.28
2023-05-21T08:25:27.125Z,97567.25
2023-05-21T08:27:00.138Z,97574.34
2023-05-21T08:28:31.803Z,97574.50
2023-05-21T08:30:05.398Z,97570.00
2023-05-21T08:31:37.150Z,97568.69
2023-05-21T08:33:08.895Z,97571.56
2023-05-21T08:34:40.999Z,97578.16
2023-05-21T08:36:36.051Z,97571.81
2023-05-21T08:38:12.869Z,97573.16
2023-05-21T08:39:51.008Z,97572.78
2023-05-21T08:41:24.492Z,97576.19
2023-05-21T08:42:56.285Z,97570.94
2023-05-21T08:44:44.543Z,97575.22
2023-05-21T08:46:18.981Z,97573.28
2023-05-21T08:47:56.886Z,97565.66
2023-05-21T08:49:33.566Z,97564.38
2023-05-21T08:51:05.765Z,97568.81
2023-05-21T08:52:41.927Z,97568.88
2023-05-21T08:54:14.062Z,97570.91
2023-05-21T08:55:47.000Z,97567.81
2023-05-21T08:57:20.412Z,97574.38
2023-05-21T08:58:52.469Z,97574.41
2023-05-21T09:00:26.639Z,97575.38
2023-05-21T09:02:00.027Z,97566.16
2023-05-21T09:03:41.213Z,97577.72
2023-05-21T09:05:15.565Z,97572.81
2023-05-21T09:06:47.913Z,97580.13
2023-05-21T09:08:29.725Z,97573.00
2023-05-21T09:10:26.860Z,97577.41
2023-05-21T09:11:58.562Z,97576.59
2023-05-21T09:13:32.372Z,97570.81
2023-05-21T09:15:07.622Z,97571.72
2023-05-21T09:16:42.107Z,97564.94
2023-05-21T09:18:14.743Z,97559.88
2023-05-21T09:20:14.641Z,97561.09
2023-05-21T09:21:52.833Z,97559.13
2023-05-21T09:23:28.914Z,97557.06
2023-05-21T09:25:04.663Z,97560.41
2023-05-21T09:26:36.630Z,97557.22
2023-05-21T09:28:15.441Z,97560.41
2023-05-21T09:29:47.184Z,97559.28
2023-05-21T09:31:20.178Z,97564.66
2023-05-21T09:32:57.582Z,97568.47
2023-05-21T09:34:29.333Z,97564.53
2023-05-21T09:36:02.119Z,97561.81
2023-05-21T09:37:37.776Z,97564.22
2023-05-21T09:39:11.271Z,97560.91
2023-05-21T09:40:48.888Z,97559.69
2023-05-21T09:42:22.306Z,97570.53
2023-05-21T09:43:59.894Z,97568.66
2023-05-21T09:45:31.741Z,97562.72
2023-05-21T09:47:04.057Z,97571.41
2023-05-21T09:48:38.196Z,97556.78
2023-05-21T09:50:18.974Z,97558.72
2023-05-21T09:51:50.606Z,97558.28
2023-05-21T09:53:22.361Z,97558.75
2023-05-21T09:54:54.123Z,97560.38
2023-05-21T09:56:29.369Z,97556.75
2023-05-21T09:58:04.621Z,97561.94
2023-05-21T09:59:38.291Z,97558.38
2023-05-21T10:01:11.353Z,97560.19
2023-05-21T10:02:46.859Z,97556.75
2023-05-21T10:04:19.058Z,97552.34
2023-05-21T10:05:53.755Z,97561.28
2023-05-21T10:07:27.102Z,97556.41
2023-05-21T10:09:04.745Z,97557.94
2023-05-21T10:10:38.862Z,97555.34
2023-05-21T10:12:11.334Z,97557.72
2023-05-21T10:13:48.964Z,97555.59
2023-05-21T10:15:25.423Z,97557.03
2023-05-21T10:16:57.419Z,97555.41
2023-05-21T10:18:30.817Z,97553.31
2023-05-21T10:20:02.819Z,97551.34
2023-05-21T10:21:34.950Z,97552.47
2023-05-21T10:23:07.431Z,97544.16
2023-05-21T10:24:40.772Z,97553.59
2023-05-21T10:26:12.997Z,97548.69
2023-05-21T10:27:45.302Z,97548.25
2023-05-21T10:29:19.896Z,97552.50
2023-05-21T10:30:53.529Z,97549.47
2023-05-21T10:32:30.376Z,97547.84
2023-05-21T10:34:05.899Z,97551.94
2023-05-21T10:35:40.407Z,97558.53
2023-05-21T10:37:13.225Z,97559.56
2023-05-21T10:38:45.798Z,97550.50
2023-05-21T10:40:18.598Z,97554.72
2023-05-21T10:42:14.562Z,97546.69
2023-05-21T10:44:04.259Z,97553.31
2023-05-21T10:46:00.023Z,97550.72
2023-05-21T10:47:57.490Z,97552.66
2023-05-21T10:49:45.908Z,97548.25
2023-05-21T10:51:39.835Z,97550.59
2023-05-21T10:53:44.439Z,97547.59
2023-05-21T10:55:47.103Z,97545.06
2023-05-21T10:57:27.902Z,97538.84
2023-05-21T10:59:15.262Z,97544.00
2023-05-21T11:00:47.382Z,97540.81
2023-05-21T11:02:21.043Z,97537.94
2023-05-21T11:03:52.975Z,97543.38
2023-05-21T11:05:52.584Z,97543.38
2023-05-21T11:07:51.473Z,97541.34
2023-05-21T11:09:23.189Z,97539.50
2023-05-21T11:10:58.002Z,97538.91
2023-05-21T11:12:34.914Z,97542.13
2023-05-21T11:14:26.515Z,97542.22
2023-05-21T11:15:58.267Z,97547.84
2023-05-21T11:17:39.018Z,97543.06
2023-05-21T11:19:17.346Z,97541.47
2023-05-21T11:20:52.016Z,97539.56
2023-05-21T11:22:26.792Z,97541.19
2023-05-21T11:24:06.490Z,97539.84
2023-05-21T11:25:38.218Z,97538.91
2023-05-21T11:27:10.082Z,97543.06
2023-05-21T11:28:41.725Z,97543.22
2023-05-21T11:30:18.397Z,97529.72
2023-05-21T11:32:03.040Z,97542.19
2023-05-21T11:33:34.736Z,97543.66
2023-05-21T11:35:07.133Z,97542.03
2023-05-21T11:36:39.694Z,97540.81
2023-05-21T11:38:11.405Z,97533.97
2023-05-21T11:39:46.656Z,97529.16
2023-05-21T11:41:20.155Z,97534.44
2023-05-21T11:42:53.840Z,97542.69
2023-05-21T11:44:41.406Z,97538.81
2023-05-21T11:46:14.219Z,97539.75
2023-05-21T11:47:48.255Z,97535.34
2023-05-21T11:49:22.118Z,97530.56
2023-05-21T11:50:53.956Z,97532.78
2023-05-21T11:52:26.869Z,97537.91
2023-05-21T11:53:59.108Z,97532.56
2023-05-21T11:55:31.155Z,97530.41
2023-05-21T11:57:06.936Z,97537.66
2023-05-21T12:00:18.268Z,97538.19
2023-05-21T12:01:50.342Z,97538.47
2023-05-21T12:03:26.737Z,97536.03
2023-05-21T12:05:00.543Z,97535.50
2023-05-21T12:06:32.460Z,97539.47
2023-05-21T12:08:08.614Z,97539.53
2023-05-21T12:09:41.805Z,97536.84
2023-05-21T12:11:13.859Z,97535.00
2023-05-21T12:12:54.939Z,97538.19
2023-05-21T12:14:28.079Z,97537.56
2023-05-21T12:15:59.824Z,97527.50
2023-05-21T12:17:31.912Z,97530.19
2023-05-21T12:19:03.926Z,97539.38
2023-05-21T12:20:35.797Z,97537.53
2023-05-21T12:22:08.107Z,97531.91
2023-05-21T12:23:39.806Z,97533.03
2023-05-21T12:25:12.165Z,97526.03
2023-05-21T12:26:45.980Z,97535.41
2023-05-21T12:28:17.855Z,97538.09
2023-05-21T12:29:54.252Z,97537.25
2023-05-21T12:31:27.502Z,97532.19
2023-05-21T12:32:59.873Z,97533.13
2023-05-21T12:34:46.206Z,97535.56
2023-05-21T12:36:31.913Z,97545.19
2023-05-21T12:38:04.025Z,97535.59
2023-05-21T12:39:40.369Z,97531.34
2023-05-21T12:41:12.035Z,97539.00
2023-05-21T12:42:44.500Z,97541.50
2023-05-21T12:44:16.400Z,97532.75
2023-05-21T12:45:48.303Z,97536.81
2023-05-21T12:47:23.573Z,97538.75
2023-05-21T12:48:56.016Z,97542.13
2023-05-21T12:50:27.660Z,97550.13
2023-05-21T12:51:59.294Z,97549.72
2023-05-21T12:53:42.346Z,97545.31
2023-05-21T12:55:15.030Z,97539.31
2023-05-21T12:56:46.809Z,97546.69
2023-05-21T12:58:22.115Z,97554.25
2023-05-21T12:59:58.408Z,97551.56
2023-05-21T13:01:30.571Z,97545.41
2023-05-21T13:03:04.429Z,97545.97
2023-05-21T13:04:36.860Z,97544.88
2023-05-21T13:06:09.254Z,97541.56
2023-05-21T13:07:40.978Z,97544.00
2023-05-21T13:09:12.583Z,97538.84
2023-05-21T13:10:44.290Z,97541.59
2023-05-21T13:12:16.010Z,97542.69
2023-05-21T13:13:47.721Z,97543.47
2023-05-21T13:15:19.397Z,97538.97
2023-05-21T13:16:50.968Z,97548.09
2023-05-21T13:18:22.861Z,97547.56
2023-05-21T13:20:18.336Z,97544.31
2023-05-21T13:21:50.046Z,97552.66
2023-05-21T13:23:21.650Z,97547.84
2023-05-21T13:24:53.318Z,97545.16
2023-05-21T13:26:25.011Z,97550.25
2023-05-21T13:27:57.449Z,97544.22
2023-05-21T13:29:29.445Z,97543.78
2023-05-21T13:31:01.232Z,97546.47
2023-05-21T13:32:32.976Z,97549.91
2023-05-21T13:34:05.624Z,97547.25
2023-05-21T13:35:37.879Z,97546.97
2023-05-21T13:37:09.513Z,97541.63
2023-05-21T13:38:41.163Z,97548.84
2023-05-21T13:40:15.287Z,97549.41
2023-05-21T13:41:48.322Z,97547.22
2023-05-21T13:43:20.035Z,97545.63
2023-05-21T13:46:23.337Z,97554.22
2023-05-21T13:47:55.877Z,97549.66
2023-05-21T13:49:27.581Z,97552.03
2023-05-21T13:50:59.201Z,97552.31
2023-05-21T13:52:30.994Z,97555.44
2023-05-21T13:54:02.787Z,97543.09
2023-05-21T13:55:34.425Z,97552.50
2023-05-21T13:57:06.367Z,97548.50
2023-05-21T13:58:40.470Z,97554.13
2023-05-21T14:00:15.561Z,97547.69
2023-05-21T14:01:48.109Z,97553.31
2023-05-21T14:03:20.475Z,97545.81
2023-05-21T14:04:52.163Z,97547.97
2023-05-21T14:06:23.837Z,97553.63
2023-05-21T14:07:56.116Z,97546.44
2023-05-21T14:09:29.716Z,97547.75
2023-05-21T14:11:04.004Z,97554.75
2023-05-21T14:12:36.619Z,97545.91
2023-05-21T14:14:08.252Z,97547.03
2023-05-21T14:15:39.870Z,97544.28
2023-05-21T14:17:11.569Z,97543.78
2023-05-21T14:18:43.165Z,97544.63
2023-05-21T14:20:14.906Z,97536.84
2023-05-21T14:21:46.623Z,97544.63
2023-05-21T14:23:18.228Z,97535.75
2023-05-21T14:24:51.185Z,97538.91
2023-05-21T14:26:22.919Z,97536.19
2023-05-21T14:27:54.647Z,97533.28
2023-05-21T14:29:26.405Z,97537.03
2023-05-21T14:30:57.990Z,97531.13
2023-05-21T14:32:29.688Z,97526.31
2023-05-21T14:34:02.975Z,97529.28
2023-05-21T14:35:34.811Z,97522.31
2023-05-21T14:37:06.657Z,97529.06
2023-05-21T14:38:38.383Z,97526.09
2023-05-21T14:40:10.477Z,97525.59
2023-05-21T14:41:42.114Z,97527.19
2023-05-21T14:43:13.897Z,97531.50
2023-05-21T14:44:45.526Z,97528.28
2023-05-21T14:46:17.156Z,97525.84
2023-05-21T14:47:49.001Z,97519.38
2023-05-21T14:49:20.828Z,97525.28
2023-05-21T14:50:53.611Z,97525.31
2023-05-21T14:52:25.346Z,97523.41
2023-05-21T14:53:57.643Z,97521.53
2023-05-21T14:55:29.629Z,97528.25
2023-05-21T14:57:01.219Z,97524.47
2023-05-21T14:58:33.015Z,97518.84
2023-05-21T15:00:05.610Z,97527.97
2023-05-21T15:01:37.353Z,97523.44
2023-05-21T15:03:09.038Z,97521.25
2023-05-21T15:04:40.856Z,97523.94
2023-05-21T15:06:12.456Z,97521.25
2023-05-21T15:07:44.326Z,97517.50
2023-05-21T15:09:15.980Z,97511.06
2023-05-21T15:10:47.655Z,97514.03
2023-05-21T15:12:19.393Z,97515.38
2023-05-21T15:13:50.960Z,97511.66
2023-05-21T15:15:22.815Z,97507.06
2023-05-21T15:16:54.537Z,97516.47
2023-05-21T15:18:26.301Z,97507.63
2023-05-21T15:19:57.912Z,97508.16
2023-05-21T15:21:29.611Z,97505.22
2023-05-21T15:23:12.707Z,97504.41
2023-05-21T15:24:48.227Z,97502.53
2023-05-21T15:26:19.994Z,97497.16
2023-05-21T15:27:51.652Z,97497.69
2023-05-21T15:29:23.327Z,97495.53
2023-05-21T15:30:54.992Z,97491.78
2023-05-21T15:32:26.626Z,97500.91
2023-05-21T15:33:59.702Z,97494.19
2023-05-21T15:35:32.272Z,97499.00
2023-05-21T15:37:04.414Z,97503.53
2023-05-21T15:38:36.459Z,97499.50
2023-05-21T15:40:09.303Z,97504.88
2023-05-21T15:41:41.023Z,97504.34
2023-05-21T15:43:12.744Z,97507.03
2023-05-21T15:44:44.449Z,97515.63
2023-05-21T15:46:16.348Z,97505.44
2023-05-21T15:47:48.219Z,97510.50
2023-05-21T15:49:20.382Z,97506.22
2023-05-21T15:50:52.096Z,97501.66
2023-05-21T15:52:23.687Z,97506.22
2023-05-21T15:53:56.013Z,97504.91
2023-05-21T15:55:27.703Z,97511.34
2023-05-21T15:56:59.392Z,97507.31
2023-05-21T15:58:31.556Z,97511.56
2023-05-21T16:00:04.022Z,97507.03
2023-05-21T16:01:40.520Z,97511.34
2023-05-21T16:03:12.716Z,97508.69
2023-05-21T16:04:44.412Z,97516.72
2023-05-21T16:06:16.213Z,97511.63
2023-05-21T16:07:47.834Z,97514.84
2023-05-21T16:09:19.599Z,97515.13
2023-05-21T16:10:51.170Z,97515.66
2023-05-21T16:12:22.948Z,97517.53
2023-05-21T16:13:54.907Z,97512.16
2023-05-21T16:15:28.494Z,97513.50
2023-05-21T16:17:00.265Z,97519.16
2023-05-21T16:18:32.865Z,97520.78
2023-05-21T16:20:05.854Z,97516.44
2023-05-21T16:21:37.647Z,97510.53
2023-05-21T16:23:09.386Z,97513.72
2023-05-21T16:24:41.087Z,97510.50
2023-05-21T16:26:13.000Z,97516.38
2023-05-21T16:27:44.629Z,97504.34
2023-05-21T16:29:16.696Z,97508.63
2023-05-21T16:30:48.317Z,97504.03
2023-05-21T16:32:20.184Z,97509.41
2023-05-21T16:33:51.905Z,97502.44
2023-05-21T16:35:23.537Z,97505.91
2023-05-21T16:36:55.254Z,97500.03
2023-05-21T16:38:26.954Z,97501.66
2023-05-21T16:39:58.558Z,97499.53
2023-05-21T16:41:30.246Z,97500.00
2023-05-21T16:43:02.415Z,97497.59
2023-05-21T16:44:34.400Z,97502.94
2023-05-21T16:46:06.136Z,97502.38
2023-05-21T16:47:37.839Z,97497.03
2023-05-21T16:49:09.545Z,97504.50
2023-05-21T16:50:41.375Z,97501.84
2023-05-21T16:52:13.058Z,97502.09
2023-05-21T16:53:44.784Z,97504.00
2023-05-21T16:55:16.406Z,97499.41
2023-05-21T16:56:48.079Z,97501.50
2023-05-21T16:58:19.873Z,97497.50
2023-05-21T16:59:51.621Z,97491.91
2023-05-21T17:01:23.354Z,97495.59
2023-05-21T17:02:55.377Z,97501.22
2023-05-21T17:04:27.121Z,97498.25
2023-05-21T17:05:58.747Z,97501.16
2023-05-21T17:07:31.437Z,97496.31
2023-05-21T17:09:03.840Z,97497.69
2023-05-21T17:10:36.052Z,97502.44
2023-05-21T17:12:07.867Z,97502.44
2023-05-21T17:13:39.567Z,97500.53
2023-05-21T17:15:11.374Z,97503.19
2023-05-21T17:16:43.136Z,97503.75
2023-05-21T17:18:14.990Z,97500.50
2023-05-21T17:19:47.393Z,97504.72
2023-05-21T17:21:20.046Z,97505.22
2023-05-21T17:22:52.249Z,97505.09
2023-05-21T17:24:24.751Z,97500.53
2023-05-21T17:25:56.451Z,97508.28
2023-05-21T17:27:28.144Z,97500.78
2023-05-21T17:28:59.895Z,97502.94
2023-05-21T17:30:31.527Z,97505.56
2023-05-21T17:32:04.454Z,97506.09
2023-05-21T17:33:39.608Z,97514.34
2023-05-21T17:35:11.430Z,97508.72
2023-05-21T17:36:43.125Z,97511.34
2023-05-21T17:38:15.073Z,97517.28
2023-05-21T17:39:46.791Z,97522.09
2023-05-21T17:41:21.767Z,97511.81
2023-05-21T17:42:53.541Z,97519.31
2023-05-21T17:44:25.284Z,97522.69
2023-05-21T17:45:56.960Z,97521.88
2023-05-21T17:47:28.653Z,97520.25
2023-05-21T17:49:00.395Z,97524.72
2023-05-21T17:50:32.103Z,97523.31
2023-05-21T17:52:04.572Z,97528.09
2023-05-21T17:53:36.180Z,97525.53
2023-05-21T17:55:08.199Z,97528.66
2023-05-21T17:56:39.907Z,97529.22
2023-05-21T17:58:11.607Z,97527.03
2023-05-21T17:59:45.317Z,97528.66
2023-05-21T18:01:17.005Z,97536.59
2023-05-21T18:02:48.734Z,97534.31
2023-05-21T18:04:20.554Z,97535.69
2023-05-21T18:05:52.199Z,97526.22
2023-05-21T18:07:23.877Z,97534.41
2023-05-21T18:08:55.481Z,97534.63
2023-05-21T18:10:27.238Z,97527.28
2023-05-21T18:11:59.973Z,97536.34
2023-05-21T18:13:31.892Z,97530.59
2023-05-21T18:15:03.676Z,97534.66
2023-05-21T18:16:35.555Z,97536.34
2023-05-21T18:18:07.526Z,97536.09
2023-05-21T18:19:39.260Z,97536.53
2023-05-21T18:21:11.265Z,97533.63
2023-05-21T18:22:44.018Z,97545.72